sensor_id;sensor_type;location;lat;lon;timestamp;P1;durP1;ratioP1;P2;durP2;ratioP2
18013;SDS011;9132;47.946;10.394;2022-08-19T00:02:08;11.82;;;10.73;;
18013;SDS011;9132;47.946;10.394;2022-08-19T00:04:35;11.73;;;10.63;;
18013;SDS011;9132;47.946;10.394;2022-08-19T00:07:02;12.38;;;11.18;;
18013;SDS011;9132;47.946;10.394;2022-08-19T00:09:28;11.23;;;10.23;;
18013;SDS011;9132;47.946;10.394;2022-08-19T00:11:56;11.40;;;10.25;;
18013;SDS011;9132;47.946;10.394;2022-08-19T00:14:23;11.93;;;10.82;;
18013;SDS011;9132;47.946;10.394;2022-08-19T00:16:50;12.75;;;11.65;;
18013;SDS011;9132;47.946;10.394;2022-08-19T00:19:19;12.20;;;11.10;;
18013;SDS011;9132;47.946;10.394;2022-08-19T00:21:45;12.32;;;11.23;;
18013;SDS011;9132;47.946;10.394;2022-08-19T00:24:13;12.57;;;11.38;;
18013;SDS011;9132;47.946;10.394;2022-08-19T00:26:39;11.55;;;10.45;;
18013;SDS011;9132;47.946;10.394;2022-08-19T00:29:08;13.05;;;11.80;;
18013;SDS011;9132;47.946;10.394;2022-08-19T00:31:35;13.00;;;11.88;;
18013;SDS011;9132;47.946;10.394;2022-08-19T00:34:01;13.55;;;12.25;;
18013;SDS011;9132;47.946;10.394;2022-08-19T00:36:28;13.52;;;12.23;;
18013;SDS011;9132;47.946;10.394;2022-08-19T00:38:54;13.25;;;11.93;;
18013;SDS011;9132;47.946;10.394;2022-08-19T00:41:22;13.20;;;11.90;;
18013;SDS011;9132;47.946;10.394;2022-08-19T00:44:02;14.13;;;12.82;;
18013;SDS011;9132;47.946;10.394;2022-08-19T00:46:30;14.25;;;12.85;;
18013;SDS011;9132;47.946;10.394;2022-08-19T00:48:57;12.98;;;11.68;;
18013;SDS011;9132;47.946;10.394;2022-08-19T00:51:24;13.50;;;12.20;;
18013;SDS011;9132;47.946;10.394;2022-08-19T00:53:51;13.25;;;11.88;;
18013;SDS011;9132;47.946;10.394;2022-08-19T00:56:18;12.10;;;11.00;;
18013;SDS011;9132;47.946;10.394;2022-08-19T00:58:44;12.05;;;10.85;;
18013;SDS011;9132;47.946;10.394;2022-08-19T01:01:11;12.57;;;11.25;;
18013;SDS011;9132;47.946;10.394;2022-08-19T01:03:40;11.40;;;10.38;;
18013;SDS011;9132;47.946;10.394;2022-08-19T01:06:06;12.25;;;11.00;;
18013;SDS011;9132;47.946;10.394;2022-08-19T01:08:33;12.02;;;10.82;;
18013;SDS011;9132;47.946;10.394;2022-08-19T01:10:59;11.15;;;10.05;;
18013;SDS011;9132;47.946;10.394;2022-08-19T01:13:27;11.63;;;10.52;;
18013;SDS011;9132;47.946;10.394;2022-08-19T01:15:56;11.60;;;10.40;;
18013;SDS011;9132;47.946;10.394;2022-08-19T01:18:23;10.93;;;9.90;;
18013;SDS011;9132;47.946;10.394;2022-08-19T01:20:52;11.13;;;9.95;;
18013;SDS011;9132;47.946;10.394;2022-08-19T01:23:21;10.73;;;9.63;;
18013;SDS011;9132;47.946;10.394;2022-08-19T01:26:07;10.90;;;9.93;;
18013;SDS011;9132;47.946;10.394;2022-08-19T01:28:35;11.18;;;10.15;;
18013;SDS011;9132;47.946;10.394;2022-08-19T01:31:02;11.88;;;10.80;;
18013;SDS011;9132;47.946;10.394;2022-08-19T01:33:28;10.65;;;9.68;;
18013;SDS011;9132;47.946;10.394;2022-08-19T01:36:03;11.73;;;10.57;;
18013;SDS011;9132;47.946;10.394;2022-08-19T01:38:34;11.27;;;10.18;;
18013;SDS011;9132;47.946;10.394;2022-08-19T01:41:01;11.68;;;10.57;;
18013;SDS011;9132;47.946;10.394;2022-08-19T01:43:27;11.10;;;10.10;;
18013;SDS011;9132;47.946;10.394;2022-08-19T01:45:54;11.35;;;10.20;;
18013;SDS011;9132;47.946;10.394;2022-08-19T01:48:20;11.75;;;10.65;;
18013;SDS011;9132;47.946;10.394;2022-08-19T01:50:47;12.10;;;10.90;;
18013;SDS011;9132;47.946;10.394;2022-08-19T01:53:13;11.18;;;10.07;;
18013;SDS011;9132;47.946;10.394;2022-08-19T01:55:42;12.20;;;11.00;;
18013;SDS011;9132;47.946;10.394;2022-08-19T01:58:11;10.95;;;9.75;;
18013;SDS011;9132;47.946;10.394;2022-08-19T02:00:38;11.43;;;10.38;;
18013;SDS011;9132;47.946;10.394;2022-08-19T02:03:04;10.73;;;9.73;;
18013;SDS011;9132;47.946;10.394;2022-08-19T02:05:31;11.02;;;9.93;;
18013;SDS011;9132;47.946;10.394;2022-08-19T02:07:58;10.35;;;9.32;;
18013;SDS011;9132;47.946;10.394;2022-08-19T02:10:24;9.60;;;8.75;;
18013;SDS011;9132;47.946;10.394;2022-08-19T02:12:52;10.05;;;9.05;;
18013;SDS011;9132;47.946;10.394;2022-08-19T02:15:18;10.60;;;9.60;;
18013;SDS011;9132;47.946;10.394;2022-08-19T02:17:45;9.93;;;8.93;;
18013;SDS011;9132;47.946;10.394;2022-08-19T02:20:12;10.15;;;9.18;;
18013;SDS011;9132;47.946;10.394;2022-08-19T02:22:39;9.63;;;8.73;;
18013;SDS011;9132;47.946;10.394;2022-08-19T02:25:07;10.05;;;9.07;;
18013;SDS011;9132;47.946;10.394;2022-08-19T02:27:33;9.50;;;8.63;;
18013;SDS011;9132;47.946;10.394;2022-08-19T02:30:01;10.02;;;9.02;;
18013;SDS011;9132;47.946;10.394;2022-08-19T02:32:28;10.23;;;9.32;;
18013;SDS011;9132;47.946;10.394;2022-08-19T02:34:55;9.77;;;8.88;;
18013;SDS011;9132;47.946;10.394;2022-08-19T02:37:22;10.30;;;9.30;;
18013;SDS011;9132;47.946;10.394;2022-08-19T02:40:06;9.93;;;9.02;;
18013;SDS011;9132;47.946;10.394;2022-08-19T02:42:32;10.68;;;9.63;;
18013;SDS011;9132;47.946;10.394;2022-08-19T02:44:59;9.60;;;8.43;;
18013;SDS011;9132;47.946;10.394;2022-08-19T02:47:26;10.23;;;9.30;;
18013;SDS011;9132;47.946;10.394;2022-08-19T02:49:53;10.20;;;9.30;;
18013;SDS011;9132;47.946;10.394;2022-08-19T02:52:19;10.00;;;9.10;;
18013;SDS011;9132;47.946;10.394;2022-08-19T02:54:48;9.70;;;8.02;;
18013;SDS011;9132;47.946;10.394;2022-08-19T02:57:14;9.35;;;8.45;;
18013;SDS011;9132;47.946;10.394;2022-08-19T02:59:40;10.10;;;9.07;;
18013;SDS011;9132;47.946;10.394;2022-08-19T03:02:07;9.50;;;8.70;;
18013;SDS011;9132;47.946;10.394;2022-08-19T03:04:34;9.82;;;9.02;;
18013;SDS011;9132;47.946;10.394;2022-08-19T03:07:01;8.98;;;8.23;;
18013;SDS011;9132;47.946;10.394;2022-08-19T03:09:27;9.82;;;9.02;;
18013;SDS011;9132;47.946;10.394;2022-08-19T03:11:54;9.82;;;8.95;;
18013;SDS011;9132;47.946;10.394;2022-08-19T03:14:21;10.35;;;9.40;;
18013;SDS011;9132;47.946;10.394;2022-08-19T03:16:51;9.57;;;8.77;;
18013;SDS011;9132;47.946;10.394;2022-08-19T03:19:18;10.70;;;9.73;;
18013;SDS011;9132;47.946;10.394;2022-08-19T03:21:47;10.45;;;9.45;;
18013;SDS011;9132;47.946;10.394;2022-08-19T03:24:14;10.00;;;9.10;;
18013;SDS011;9132;47.946;10.394;2022-08-19T03:26:43;10.68;;;9.68;;
18013;SDS011;9132;47.946;10.394;2022-08-19T03:29:10;10.60;;;9.50;;
18013;SDS011;9132;47.946;10.394;2022-08-19T03:31:37;10.57;;;9.48;;
18013;SDS011;9132;47.946;10.394;2022-08-19T03:34:04;10.40;;;9.40;;
18013;SDS011;9132;47.946;10.394;2022-08-19T03:36:31;9.95;;;9.05;;
18013;SDS011;9132;47.946;10.394;2022-08-19T03:38:59;9.38;;;8.48;;
18013;SDS011;9132;47.946;10.394;2022-08-19T03:41:27;10.48;;;8.90;;
18013;SDS011;9132;47.946;10.394;2022-08-19T03:43:54;9.63;;;8.73;;
18013;SDS011;9132;47.946;10.394;2022-08-19T03:46:21;9.63;;;8.73;;
18013;SDS011;9132;47.946;10.394;2022-08-19T03:48:48;9.98;;;9.07;;
18013;SDS011;9132;47.946;10.394;2022-08-19T03:51:19;10.38;;;9.40;;
18013;SDS011;9132;47.946;10.394;2022-08-19T03:53:46;9.63;;;8.63;;
18013;SDS011;9132;47.946;10.394;2022-08-19T03:56:13;9.30;;;8.48;;
18013;SDS011;9132;47.946;10.394;2022-08-19T03:58:40;8.32;;;7.43;;
18013;SDS011;9132;47.946;10.394;2022-08-19T04:01:07;8.75;;;7.85;;
18013;SDS011;9132;47.946;10.394;2022-08-19T04:03:33;8.38;;;7.57;;
18013;SDS011;9132;47.946;10.394;2022-08-19T04:06:08;8.05;;;7.32;;
18013;SDS011;9132;47.946;10.394;2022-08-19T04:08:34;8.40;;;7.20;;
18013;SDS011;9132;47.946;10.394;2022-08-19T04:11:01;7.47;;;6.78;;
18013;SDS011;9132;47.946;10.394;2022-08-19T04:13:28;8.02;;;7.32;;
18013;SDS011;9132;47.946;10.394;2022-08-19T04:15:55;7.78;;;7.05;;
18013;SDS011;9132;47.946;10.394;2022-08-19T04:18:21;8.80;;;7.85;;
18013;SDS011;9132;47.946;10.394;2022-08-19T04:20:47;8.65;;;7.85;;
18013;SDS011;9132;47.946;10.394;2022-08-19T04:23:14;8.90;;;8.10;;
18013;SDS011;9132;47.946;10.394;2022-08-19T04:25:42;8.82;;;7.97;;
18013;SDS011;9132;47.946;10.394;2022-08-19T04:28:09;8.23;;;7.43;;
18013;SDS011;9132;47.946;10.394;2022-08-19T04:30:41;7.97;;;7.28;;
18013;SDS011;9132;47.946;10.394;2022-08-19T04:33:08;8.85;;;7.88;;
18013;SDS011;9132;47.946;10.394;2022-08-19T04:35:35;8.13;;;7.32;;
18013;SDS011;9132;47.946;10.394;2022-08-19T04:38:02;8.30;;;7.50;;
18013;SDS011;9132;47.946;10.394;2022-08-19T04:40:28;8.00;;;7.20;;
18013;SDS011;9132;47.946;10.394;2022-08-19T04:43:13;7.93;;;7.22;;
18013;SDS011;9132;47.946;10.394;2022-08-19T04:45:42;8.40;;;7.53;;
18013;SDS011;9132;47.946;10.394;2022-08-19T04:48:08;7.40;;;6.40;;
18013;SDS011;9132;47.946;10.394;2022-08-19T04:50:35;7.50;;;6.70;;
18013;SDS011;9132;47.946;10.394;2022-08-19T04:53:01;8.18;;;7.47;;
18013;SDS011;9132;47.946;10.394;2022-08-19T04:55:30;8.30;;;7.55;;
18013;SDS011;9132;47.946;10.394;2022-08-19T04:57:56;8.20;;;7.50;;
18013;SDS011;9132;47.946;10.394;2022-08-19T05:00:22;8.98;;;8.18;;
18013;SDS011;9132;47.946;10.394;2022-08-19T05:02:50;8.80;;;8.02;;
18013;SDS011;9132;47.946;10.394;2022-08-19T05:05:16;8.82;;;8.00;;
18013;SDS011;9132;47.946;10.394;2022-08-19T05:07:43;9.77;;;8.77;;
18013;SDS011;9132;47.946;10.394;2022-08-19T05:10:09;9.60;;;8.70;;
18013;SDS011;9132;47.946;10.394;2022-08-19T05:12:36;10.05;;;8.95;;
18013;SDS011;9132;47.946;10.394;2022-08-19T05:15:03;8.85;;;7.95;;
18013;SDS011;9132;47.946;10.394;2022-08-19T05:17:30;9.85;;;8.85;;
18013;SDS011;9132;47.946;10.394;2022-08-19T05:19:58;9.38;;;8.48;;
18013;SDS011;9132;47.946;10.394;2022-08-19T05:22:42;10.00;;;9.00;;
18013;SDS011;9132;47.946;10.394;2022-08-19T05:25:10;10.68;;;9.43;;
18013;SDS011;9132;47.946;10.394;2022-08-19T05:27:38;12.57;;;10.75;;
18013;SDS011;9132;47.946;10.394;2022-08-19T05:30:04;11.75;;;10.65;;
18013;SDS011;9132;47.946;10.394;2022-08-19T05:32:31;12.95;;;11.70;;
18013;SDS011;9132;47.946;10.394;2022-08-19T05:34:59;15.65;;;14.05;;
18013;SDS011;9132;47.946;10.394;2022-08-19T05:37:25;19.15;;;16.88;;
18013;SDS011;9132;47.946;10.394;2022-08-19T05:39:53;19.83;;;17.73;;
18013;SDS011;9132;47.946;10.394;2022-08-19T05:42:19;21.73;;;18.65;;
18013;SDS011;9132;47.946;10.394;2022-08-19T05:44:48;22.58;;;20.17;;
18013;SDS011;9132;47.946;10.394;2022-08-19T05:47:14;25.65;;;21.95;;
18013;SDS011;9132;47.946;10.394;2022-08-19T05:49:41;27.08;;;24.23;;
18013;SDS011;9132;47.946;10.394;2022-08-19T05:52:11;29.33;;;25.25;;
18013;SDS011;9132;47.946;10.394;2022-08-19T05:54:38;28.33;;;24.17;;
18013;SDS011;9132;47.946;10.394;2022-08-19T05:57:05;29.92;;;25.15;;
18013;SDS011;9132;47.946;10.394;2022-08-19T05:59:31;28.52;;;25.70;;
18013;SDS011;9132;47.946;10.394;2022-08-19T06:02:00;30.58;;;27.38;;
18013;SDS011;9132;47.946;10.394;2022-08-19T06:04:26;29.63;;;26.02;;
18013;SDS011;9132;47.946;10.394;2022-08-19T06:06:53;30.35;;;26.92;;
18013;SDS011;9132;47.946;10.394;2022-08-19T06:09:22;32.25;;;28.20;;
18013;SDS011;9132;47.946;10.394;2022-08-19T06:11:50;32.60;;;28.45;;
18013;SDS011;9132;47.946;10.394;2022-08-19T06:14:19;34.75;;;30.95;;
18013;SDS011;9132;47.946;10.394;2022-08-19T06:16:46;32.20;;;27.67;;
18013;SDS011;9132;47.946;10.394;2022-08-19T06:19:13;39.83;;;30.98;;
18013;SDS011;9132;47.946;10.394;2022-08-19T06:21:40;38.55;;;31.50;;
18013;SDS011;9132;47.946;10.394;2022-08-19T06:24:08;38.00;;;31.98;;
18013;SDS011;9132;47.946;10.394;2022-08-19T06:26:38;37.40;;;31.27;;
18013;SDS011;9132;47.946;10.394;2022-08-19T06:29:05;36.47;;;32.03;;
18013;SDS011;9132;47.946;10.394;2022-08-19T06:31:32;39.15;;;32.65;;
18013;SDS011;9132;47.946;10.394;2022-08-19T06:33:59;36.40;;;32.35;;
18013;SDS011;9132;47.946;10.394;2022-08-19T06:36:29;42.03;;;33.42;;
18013;SDS011;9132;47.946;10.394;2022-08-19T06:38:59;40.60;;;33.42;;
18013;SDS011;9132;47.946;10.394;2022-08-19T06:41:25;39.05;;;32.50;;
18013;SDS011;9132;47.946;10.394;2022-08-19T06:43:53;34.92;;;30.92;;
18013;SDS011;9132;47.946;10.394;2022-08-19T06:46:20;35.95;;;30.70;;
18013;SDS011;9132;47.946;10.394;2022-08-19T06:48:47;33.08;;;29.27;;
18013;SDS011;9132;47.946;10.394;2022-08-19T06:51:14;33.30;;;29.08;;
18013;SDS011;9132;47.946;10.394;2022-08-19T06:53:43;29.27;;;26.25;;
18013;SDS011;9132;47.946;10.394;2022-08-19T06:56:12;27.05;;;24.02;;
18013;SDS011;9132;47.946;10.394;2022-08-19T06:58:38;23.95;;;21.45;;
18013;SDS011;9132;47.946;10.394;2022-08-19T07:01:06;21.95;;;19.60;;
18013;SDS011;9132;47.946;10.394;2022-08-19T07:03:33;22.48;;;20.08;;
18013;SDS011;9132;47.946;10.394;2022-08-19T07:06:02;21.17;;;19.02;;
18013;SDS011;9132;47.946;10.394;2022-08-19T07:08:28;22.05;;;19.67;;
18013;SDS011;9132;47.946;10.394;2022-08-19T07:10:55;20.55;;;18.38;;
18013;SDS011;9132;47.946;10.394;2022-08-19T07:13:21;22.15;;;19.75;;
18013;SDS011;9132;47.946;10.394;2022-08-19T07:15:48;19.48;;;17.48;;
18013;SDS011;9132;47.946;10.394;2022-08-19T07:18:16;20.65;;;18.52;;
18013;SDS011;9132;47.946;10.394;2022-08-19T07:20:43;20.38;;;18.23;;
18013;SDS011;9132;47.946;10.394;2022-08-19T07:23:09;17.05;;;15.35;;
18013;SDS011;9132;47.946;10.394;2022-08-19T07:25:36;18.13;;;16.17;;
18013;SDS011;9132;47.946;10.394;2022-08-19T07:28:02;16.73;;;14.95;;
18013;SDS011;9132;47.946;10.394;2022-08-19T07:30:29;18.00;;;16.20;;
18013;SDS011;9132;47.946;10.394;2022-08-19T07:32:55;15.90;;;14.27;;
18013;SDS011;9132;47.946;10.394;2022-08-19T07:35:23;17.00;;;15.38;;
18013;SDS011;9132;47.946;10.394;2022-08-19T07:37:50;15.65;;;14.13;;
18013;SDS011;9132;47.946;10.394;2022-08-19T07:40:17;15.23;;;13.65;;
18013;SDS011;9132;47.946;10.394;2022-08-19T07:42:44;15.45;;;13.88;;
18013;SDS011;9132;47.946;10.394;2022-08-19T07:45:10;15.80;;;14.20;;
18013;SDS011;9132;47.946;10.394;2022-08-19T07:47:37;17.42;;;15.55;;
18013;SDS011;9132;47.946;10.394;2022-08-19T07:50:06;16.65;;;14.88;;
18013;SDS011;9132;47.946;10.394;2022-08-19T07:52:35;17.23;;;15.13;;
18013;SDS011;9132;47.946;10.394;2022-08-19T07:55:03;16.83;;;15.13;;
18013;SDS011;9132;47.946;10.394;2022-08-19T07:57:30;18.95;;;16.70;;
18013;SDS011;9132;47.946;10.394;2022-08-19T07:59:56;18.52;;;16.63;;
18013;SDS011;9132;47.946;10.394;2022-08-19T08:02:23;17.38;;;15.52;;
18013;SDS011;9132;47.946;10.394;2022-08-19T08:04:49;16.98;;;15.27;;
18013;SDS011;9132;47.946;10.394;2022-08-19T08:07:34;16.25;;;14.63;;
18013;SDS011;9132;47.946;10.394;2022-08-19T08:10:18;16.95;;;15.00;;
18013;SDS011;9132;47.946;10.394;2022-08-19T08:12:44;16.60;;;14.90;;
18013;SDS011;9132;47.946;10.394;2022-08-19T08:15:12;15.30;;;13.68;;
18013;SDS011;9132;47.946;10.394;2022-08-19T08:17:41;14.40;;;12.98;;
18013;SDS011;9132;47.946;10.394;2022-08-19T08:20:08;13.48;;;12.13;;
18013;SDS011;9132;47.946;10.394;2022-08-19T08:22:36;15.30;;;12.93;;
18013;SDS011;9132;47.946;10.394;2022-08-19T08:25:23;13.93;;;12.52;;
18013;SDS011;9132;47.946;10.394;2022-08-19T08:27:50;13.45;;;12.05;;
18013;SDS011;9132;47.946;10.394;2022-08-19T08:30:17;13.98;;;12.57;;
18013;SDS011;9132;47.946;10.394;2022-08-19T08:32:44;13.60;;;12.20;;
18013;SDS011;9132;47.946;10.394;2022-08-19T08:35:12;15.57;;;13.38;;
18013;SDS011;9132;47.946;10.394;2022-08-19T08:37:39;14.38;;;12.98;;
18013;SDS011;9132;47.946;10.394;2022-08-19T08:40:09;13.05;;;11.75;;
18013;SDS011;9132;47.946;10.394;2022-08-19T08:42:42;14.13;;;12.73;;
18013;SDS011;9132;47.946;10.394;2022-08-19T08:45:10;11.30;;;10.18;;
18013;SDS011;9132;47.946;10.394;2022-08-19T08:47:40;12.80;;;11.50;;
18013;SDS011;9132;47.946;10.394;2022-08-19T08:50:09;12.90;;;11.60;;
18013;SDS011;9132;47.946;10.394;2022-08-19T08:52:41;13.32;;;11.93;;
18013;SDS011;9132;47.946;10.394;2022-08-19T08:55:10;12.48;;;11.25;;
18013;SDS011;9132;47.946;10.394;2022-08-19T08:57:38;12.50;;;11.30;;
18013;SDS011;9132;47.946;10.394;2022-08-19T09:00:06;12.23;;;11.02;;
18013;SDS011;9132;47.946;10.394;2022-08-19T09:02:34;11.13;;;10.13;;
18013;SDS011;9132;47.946;10.394;2022-08-19T09:05:00;11.52;;;10.40;;
18013;SDS011;9132;47.946;10.394;2022-08-19T09:07:30;11.15;;;10.05;;
18013;SDS011;9132;47.946;10.394;2022-08-19T09:10:14;10.27;;;9.27;;
18013;SDS011;9132;47.946;10.394;2022-08-19T09:12:45;10.32;;;9.38;;
18013;SDS011;9132;47.946;10.394;2022-08-19T09:15:14;10.45;;;9.43;;
18013;SDS011;9132;47.946;10.394;2022-08-19T09:17:41;9.70;;;8.80;;
18013;SDS011;9132;47.946;10.394;2022-08-19T09:20:19;9.23;;;8.32;;
18013;SDS011;9132;47.946;10.394;2022-08-19T09:22:46;8.45;;;7.65;;
18013;SDS011;9132;47.946;10.394;2022-08-19T09:25:17;8.95;;;8.13;;
18013;SDS011;9132;47.946;10.394;2022-08-19T09:27:45;9.15;;;8.32;;
18013;SDS011;9132;47.946;10.394;2022-08-19T09:30:14;7.68;;;6.88;;
18013;SDS011;9132;47.946;10.394;2022-08-19T09:32:41;7.68;;;6.97;;
18013;SDS011;9132;47.946;10.394;2022-08-19T09:35:08;8.00;;;7.22;;
18013;SDS011;9132;47.946;10.394;2022-08-19T09:37:34;8.05;;;7.35;;
18013;SDS011;9132;47.946;10.394;2022-08-19T09:40:01;8.23;;;7.50;;
18013;SDS011;9132;47.946;10.394;2022-08-19T09:42:29;8.07;;;7.30;;
18013;SDS011;9132;47.946;10.394;2022-08-19T09:44:55;8.32;;;7.60;;
18013;SDS011;9132;47.946;10.394;2022-08-19T09:47:22;8.10;;;7.38;;
18013;SDS011;9132;47.946;10.394;2022-08-19T09:49:48;8.48;;;7.57;;
18013;SDS011;9132;47.946;10.394;2022-08-19T09:52:15;7.40;;;6.72;;
18013;SDS011;9132;47.946;10.394;2022-08-19T09:54:42;8.07;;;7.28;;
18013;SDS011;9132;47.946;10.394;2022-08-19T09:57:09;7.72;;;6.93;;
18013;SDS011;9132;47.946;10.394;2022-08-19T09:59:36;7.80;;;7.05;;
18013;SDS011;9132;47.946;10.394;2022-08-19T10:02:05;9.00;;;8.20;;
18013;SDS011;9132;47.946;10.394;2022-08-19T10:04:31;9.60;;;8.63;;
18013;SDS011;9132;47.946;10.394;2022-08-19T10:07:11;10.90;;;9.80;;
18013;SDS011;9132;47.946;10.394;2022-08-19T10:09:38;11.20;;;10.10;;
18013;SDS011;9132;47.946;10.394;2022-08-19T10:12:06;12.02;;;10.75;;
18013;SDS011;9132;47.946;10.394;2022-08-19T10:14:33;13.82;;;12.32;;
18013;SDS011;9132;47.946;10.394;2022-08-19T10:17:00;16.10;;;13.43;;
18013;SDS011;9132;47.946;10.394;2022-08-19T10:19:27;14.13;;;12.68;;
18013;SDS011;9132;47.946;10.394;2022-08-19T10:21:57;14.00;;;12.55;;
18013;SDS011;9132;47.946;10.394;2022-08-19T10:24:23;11.43;;;10.23;;
18013;SDS011;9132;47.946;10.394;2022-08-19T10:26:50;10.77;;;9.68;;
18013;SDS011;9132;47.946;10.394;2022-08-19T10:29:17;10.93;;;9.82;;
18013;SDS011;9132;47.946;10.394;2022-08-19T10:31:43;10.63;;;9.63;;
18013;SDS011;9132;47.946;10.394;2022-08-19T10:34:11;10.48;;;9.38;;
18013;SDS011;9132;47.946;10.394;2022-08-19T10:36:37;10.55;;;9.50;;
18013;SDS011;9132;47.946;10.394;2022-08-19T10:39:04;11.05;;;9.95;;
18013;SDS011;9132;47.946;10.394;2022-08-19T10:41:32;10.68;;;9.60;;
18013;SDS011;9132;47.946;10.394;2022-08-19T10:44:00;12.18;;;10.07;;
18013;SDS011;9132;47.946;10.394;2022-08-19T10:46:27;9.90;;;8.90;;
18013;SDS011;9132;47.946;10.394;2022-08-19T10:48:54;7.28;;;6.57;;
18013;SDS011;9132;47.946;10.394;2022-08-19T10:51:22;5.20;;;4.70;;
18013;SDS011;9132;47.946;10.394;2022-08-19T10:54:06;4.65;;;4.25;;
18013;SDS011;9132;47.946;10.394;2022-08-19T10:56:32;4.45;;;4.05;;
18013;SDS011;9132;47.946;10.394;2022-08-19T10:59:17;4.60;;;4.20;;
18013;SDS011;9132;47.946;10.394;2022-08-19T11:01:44;4.10;;;3.70;;
18013;SDS011;9132;47.946;10.394;2022-08-19T11:04:11;4.10;;;3.70;;
18013;SDS011;9132;47.946;10.394;2022-08-19T11:06:39;4.40;;;4.00;;
18013;SDS011;9132;47.946;10.394;2022-08-19T11:09:06;3.80;;;3.50;;
18013;SDS011;9132;47.946;10.394;2022-08-19T11:11:33;3.88;;;3.58;;
18013;SDS011;9132;47.946;10.394;2022-08-19T11:14:05;4.70;;;3.75;;
18013;SDS011;9132;47.946;10.394;2022-08-19T11:16:32;4.10;;;3.70;;
18013;SDS011;9132;47.946;10.394;2022-08-19T11:18:59;3.63;;;3.33;;
18013;SDS011;9132;47.946;10.394;2022-08-19T11:21:27;4.10;;;3.60;;
18013;SDS011;9132;47.946;10.394;2022-08-19T11:23:57;5.50;;;3.72;;
18013;SDS011;9132;47.946;10.394;2022-08-19T11:26:24;3.08;;;2.88;;
18013;SDS011;9132;47.946;10.394;2022-08-19T11:28:50;2.47;;;2.25;;
18013;SDS011;9132;47.946;10.394;2022-08-19T11:31:20;2.35;;;2.00;;
18013;SDS011;9132;47.946;10.394;2022-08-19T11:33:47;1.92;;;1.83;;
18013;SDS011;9132;47.946;10.394;2022-08-19T11:36:15;2.17;;;1.95;;
18013;SDS011;9132;47.946;10.394;2022-08-19T11:38:42;1.75;;;1.65;;
18013;SDS011;9132;47.946;10.394;2022-08-19T11:41:10;2.28;;;2.08;;
18013;SDS011;9132;47.946;10.394;2022-08-19T11:43:36;2.50;;;2.30;;
18013;SDS011;9132;47.946;10.394;2022-08-19T11:46:05;2.58;;;2.38;;
18013;SDS011;9132;47.946;10.394;2022-08-19T11:48:32;3.10;;;2.80;;
18013;SDS011;9132;47.946;10.394;2022-08-19T11:50:59;4.40;;;4.00;;
18013;SDS011;9132;47.946;10.394;2022-08-19T11:53:25;5.30;;;4.80;;
18013;SDS011;9132;47.946;10.394;2022-08-19T11:55:52;6.28;;;5.75;;
18013;SDS011;9132;47.946;10.394;2022-08-19T11:58:22;12.85;;;8.25;;
18013;SDS011;9132;47.946;10.394;2022-08-19T12:00:49;9.82;;;8.85;;
18013;SDS011;9132;47.946;10.394;2022-08-19T12:03:15;12.45;;;11.25;;
18013;SDS011;9132;47.946;10.394;2022-08-19T12:05:42;15.73;;;14.20;;
18013;SDS011;9132;47.946;10.394;2022-08-19T12:08:08;16.58;;;14.82;;
18013;SDS011;9132;47.946;10.394;2022-08-19T12:10:36;16.17;;;14.48;;
18013;SDS011;9132;47.946;10.394;2022-08-19T12:13:02;16.92;;;15.30;;
18013;SDS011;9132;47.946;10.394;2022-08-19T12:15:30;19.65;;;17.58;;
18013;SDS011;9132;47.946;10.394;2022-08-19T12:18:01;20.77;;;18.58;;
18013;SDS011;9132;47.946;10.394;2022-08-19T12:20:27;20.90;;;18.73;;
18013;SDS011;9132;47.946;10.394;2022-08-19T12:22:54;21.95;;;19.65;;
18013;SDS011;9132;47.946;10.394;2022-08-19T12:25:20;21.42;;;19.13;;
18013;SDS011;9132;47.946;10.394;2022-08-19T12:27:46;22.20;;;19.90;;
18013;SDS011;9132;47.946;10.394;2022-08-19T12:30:14;20.40;;;18.30;;
18013;SDS011;9132;47.946;10.394;2022-08-19T12:32:41;18.02;;;16.10;;
18013;SDS011;9132;47.946;10.394;2022-08-19T12:35:08;17.90;;;16.10;;
18013;SDS011;9132;47.946;10.394;2022-08-19T12:37:36;15.05;;;13.55;;
18013;SDS011;9132;47.946;10.394;2022-08-19T12:40:03;17.00;;;15.27;;
18013;SDS011;9132;47.946;10.394;2022-08-19T12:42:30;15.95;;;14.25;;
18013;SDS011;9132;47.946;10.394;2022-08-19T12:44:56;14.32;;;12.93;;
18013;SDS011;9132;47.946;10.394;2022-08-19T12:47:22;15.32;;;13.82;;
18013;SDS011;9132;47.946;10.394;2022-08-19T12:49:52;13.82;;;12.40;;
18013;SDS011;9132;47.946;10.394;2022-08-19T12:52:19;15.50;;;13.10;;
18013;SDS011;9132;47.946;10.394;2022-08-19T12:54:46;14.55;;;13.13;;
18013;SDS011;9132;47.946;10.394;2022-08-19T12:57:12;16.00;;;13.10;;
18013;SDS011;9132;47.946;10.394;2022-08-19T12:59:38;25.05;;;16.35;;
18013;SDS011;9132;47.946;10.394;2022-08-19T13:02:06;65.03;;;31.98;;
18013;SDS011;9132;47.946;10.394;2022-08-19T13:04:33;44.05;;;25.20;;
18013;SDS011;9132;47.946;10.394;2022-08-19T13:07:02;24.52;;;17.20;;
18013;SDS011;9132;47.946;10.394;2022-08-19T13:09:29;14.95;;;13.35;;
18013;SDS011;9132;47.946;10.394;2022-08-19T13:11:55;13.70;;;11.40;;
18013;SDS011;9132;47.946;10.394;2022-08-19T13:14:22;11.38;;;10.38;;
18013;SDS011;9132;47.946;10.394;2022-08-19T13:16:48;10.07;;;7.72;;
18013;SDS011;9132;47.946;10.394;2022-08-19T13:19:14;8.65;;;7.85;;
18013;SDS011;9132;47.946;10.394;2022-08-19T13:21:41;14.85;;;11.32;;
18013;SDS011;9132;47.946;10.394;2022-08-19T13:24:08;10.05;;;9.02;;
18013;SDS011;9132;47.946;10.394;2022-08-19T13:26:35;8.82;;;8.02;;
18013;SDS011;9132;47.946;10.394;2022-08-19T13:29:01;10.27;;;9.27;;
18013;SDS011;9132;47.946;10.394;2022-08-19T13:31:45;10.77;;;9.25;;
18013;SDS011;9132;47.946;10.394;2022-08-19T13:34:30;9.40;;;8.60;;
18013;SDS011;9132;47.946;10.394;2022-08-19T13:36:57;7.47;;;6.78;;
18013;SDS011;9132;47.946;10.394;2022-08-19T13:39:25;7.90;;;7.20;;
18013;SDS011;9132;47.946;10.394;2022-08-19T13:41:52;11.65;;;10.13;;
18013;SDS011;9132;47.946;10.394;2022-08-19T13:44:19;8.35;;;7.50;;
18013;SDS011;9132;47.946;10.394;2022-08-19T13:46:45;7.60;;;6.90;;
18013;SDS011;9132;47.946;10.394;2022-08-19T13:49:13;7.45;;;6.85;;
18013;SDS011;9132;47.946;10.394;2022-08-19T13:51:40;7.18;;;6.45;;
18013;SDS011;9132;47.946;10.394;2022-08-19T13:54:07;7.72;;;6.88;;
18013;SDS011;9132;47.946;10.394;2022-08-19T13:56:35;7.13;;;6.53;;
18013;SDS011;9132;47.946;10.394;2022-08-19T13:59:01;7.95;;;7.15;;
18013;SDS011;9132;47.946;10.394;2022-08-19T14:01:28;6.60;;;6.00;;
18013;SDS011;9132;47.946;10.394;2022-08-19T14:03:55;7.28;;;6.55;;
18013;SDS011;9132;47.946;10.394;2022-08-19T14:06:21;6.88;;;6.25;;
18013;SDS011;9132;47.946;10.394;2022-08-19T14:08:48;5.57;;;5.07;;
18013;SDS011;9132;47.946;10.394;2022-08-19T14:11:15;4.70;;;4.30;;
18013;SDS011;9132;47.946;10.394;2022-08-19T14:13:43;5.22;;;4.82;;
18013;SDS011;9132;47.946;10.394;2022-08-19T14:16:10;4.55;;;4.15;;
18013;SDS011;9132;47.946;10.394;2022-08-19T14:18:36;4.82;;;4.35;;
18013;SDS011;9132;47.946;10.394;2022-08-19T14:21:03;4.32;;;3.95;;
18013;SDS011;9132;47.946;10.394;2022-08-19T14:23:29;3.65;;;3.35;;
18013;SDS011;9132;47.946;10.394;2022-08-19T14:26:02;4.05;;;3.75;;
18013;SDS011;9132;47.946;10.394;2022-08-19T14:28:29;4.47;;;4.18;;
18013;SDS011;9132;47.946;10.394;2022-08-19T14:30:57;4.57;;;4.18;;
18013;SDS011;9132;47.946;10.394;2022-08-19T14:33:23;5.03;;;4.20;;
18013;SDS011;9132;47.946;10.394;2022-08-19T14:35:49;4.65;;;4.25;;
18013;SDS011;9132;47.946;10.394;2022-08-19T14:38:16;5.70;;;5.20;;